Flight Track Log - Related Links

Times and Time Zones

All times are in EDT time to prevent confusion due to time zone crossing. See the JAL884 flight status page for this flight to view local times or setup timezone preferences in your user account.

Time Position Orientation Groundspeed Altitude Reporting Facility
EDT Latitude Longitude Course Direction KTS MPH feet Rate Location/Type
Wed 06:22:00 AM 31.2796 122.2236 70° East  Level Estimated
Wed 06:23:00 AM 31.3248 122.3677 70° East  Level Estimated
Wed 06:24:00 AM 31.3699 122.5118 70° East  Level Estimated
Wed 06:25:00 AM 31.4149 122.6562 70° East  Level Estimated
Wed 06:26:00 AM 31.4597 122.8006 70° East  Level Estimated
Wed 06:27:00 AM 31.5043 122.9452 70° East  Level Estimated
Wed 06:28:00 AM 31.5488 123.0899 70° East  Level Estimated
Wed 06:29:00 AM 31.5931 123.2348 70° East  Level Estimated
Wed 06:30:00 AM 31.6372 123.3798 70° East  Level Estimated
Wed 06:31:00 AM 31.6812 123.5249 70° East  Level Estimated
Wed 06:32:00 AM 31.7250 123.6702 70° East  Level Estimated
Wed 06:33:00 AM 31.7686 123.8156 71° East  Level Estimated
Wed 06:34:00 AM 31.8121 123.9612 71° East  Level Estimated
Wed 06:35:00 AM 31.8554 124.1069 71° East  Level Estimated
Wed 06:36:00 AM 31.8986 124.2527 71° East  Level Estimated
Wed 06:37:00 AM 31.9411 124.3972 71° East  Level Estimated
Wed 06:38:00 AM 31.9835 124.5418 71° East  Level Estimated
Wed 06:39:00 AM 32.0257 124.6866 71° East  Level Estimated
Wed 06:40:00 AM 32.0678 124.8315 71° East  Level Estimated
Wed 06:41:00 AM 32.1097 124.9766 71° East  Level Estimated
Wed 06:42:00 AM 32.1514 125.1218 71° East  Level Estimated
Wed 06:43:00 AM 32.1930 125.2671 71° East  Level Estimated
Wed 06:44:00 AM 32.2343 125.4125 71° East  Level Estimated
Wed 06:45:00 AM 32.2756 125.5581 71° East  Level Estimated
Wed 06:46:00 AM 32.3166 125.7038 72° East  Level Estimated
Wed 06:47:00 AM 32.3575 125.8496 72° East  Level Estimated
Wed 06:48:00 AM 32.3983 125.9956 72° East  Level Estimated
Wed 06:49:00 AM 32.4388 126.1417 72° East  Level Estimated
Wed 06:50:00 AM 32.4792 126.2880 72° East  Level Estimated
Wed 06:51:00 AM 32.5194 126.4343 72° East  Level Estimated
Wed 06:52:00 AM 32.5595 126.5808 72° East  Level Estimated
Wed 06:53:00 AM 32.5994 126.7275 72° East  Level Estimated
Wed 06:54:00 AM 32.6391 126.8742 72° East  Level Estimated
Wed 06:55:00 AM 32.6786 127.0211 72° East  Level Estimated
Wed 06:56:00 AM 32.7180 127.1681 72° East  Level Estimated
Wed 06:57:00 AM 32.7572 127.3153 72° East  Level Estimated
Wed 06:58:00 AM 32.7962 127.4626 72° East  Level Estimated
Wed 06:59:00 AM 32.8350 127.6100 73° East  Level Estimated
Wed 07:00:00 AM 32.8737 127.7575 73° East  Level Estimated
Wed 07:01:00 AM 32.9122 127.9052 73° East  Level Estimated
Wed 07:02:00 AM 32.9506 128.0530 73° East  Level Estimated
Wed 07:03:00 AM 32.9887 128.2009 73° East  Level Estimated
Wed 07:04:00 AM 33.0267 128.3489 73° East  Level Estimated
Wed 07:05:00 AM 33.0645 128.4971 73° East  Level Estimated
Wed 07:06:00 AM 33.1021 128.6454 73° East  Level Estimated
Wed 07:07:00 AM 33.1396 128.7938 73° East  Level Estimated
Wed 07:08:00 AM 33.1769 128.9424 73° East  Level Estimated
Wed 07:09:00 AM 33.2140 129.0911 73° East  Level Estimated
Wed 07:10:00 AM 33.2509 129.2399 73° East  Level Estimated
Wed 07:11:00 AM 33.2877 129.3888 74° East  Level Estimated
Wed 07:12:00 AM 33.3242 129.5379 74° East  Level Estimated
Wed 07:13:00 AM 33.3606 129.6871 74° East  Level Estimated
Wed 07:14:00 AM 33.3969 129.8364 74° East  Level Estimated
Wed 07:15:00 AM 33.4329 129.9858 74° East  Level Estimated
Wed 07:16:00 AM 33.4688 130.1354 74° East  Level Estimated
Wed 07:17:00 AM 33.5044 130.2850 74° East  Level Estimated
Wed 07:18:00 AM 33.5399 130.4348 74° East  Level Estimated
Wed 07:19:00 AM 33.5752 130.5848 74° East  Level Estimated
Wed 07:20:00 AM 33.6104 130.7348 74° East  Level Estimated
Wed 07:21:00 AM 33.6453 130.8850 74° East  Level Estimated
Wed 07:22:00 AM 33.6801 131.0353 74° East  Level Estimated
Wed 07:23:00 AM 33.7147 131.1857 75° East  Level Estimated
Wed 07:24:00 AM 33.7491 131.3362 75° East  Level Estimated
Wed 07:25:00 AM 33.7833 131.4869 75° East  Level Estimated
Wed 07:26:00 AM 33.8174 131.6376 75° East  Level Estimated
Wed 07:27:00 AM 33.8512 131.7885 75° East  Level Estimated
Wed 07:28:00 AM 33.8849 131.9395 75° East  Level Estimated
Wed 07:29:00 AM 33.9184 132.0907 75° East  Level Estimated
Wed 07:30:00 AM 33.9517 132.2419 75° East  Level Estimated
Wed 07:31:00 AM 33.9848 132.3933 75° East  Level Estimated
Wed 07:32:00 AM 34.0178 132.5448 75° East  Level Estimated
Wed 07:33:00 AM 34.0505 132.6964 75° East  Level Estimated
Wed 07:34:00 AM 34.0831 132.8481 75° East  Level Estimated
Wed 07:35:00 AM 34.1155 132.9999 76° East  Level Estimated
Wed 07:36:00 AM 34.1476 133.1519 76° East  Level Estimated
Wed 07:37:00 AM 34.1796 133.3040 76° East  Level Estimated
Wed 07:38:00 AM 34.2114 133.4561 76° East  Level Estimated
Wed 07:39:00 AM 34.2431 133.6084 76° East  Level Estimated
Wed 07:40:00 AM 34.2745 133.7608 76° East  Level Estimated
Wed 07:41:00 AM 34.3058 133.9134 76° East  Level Estimated
Wed 07:42:00 AM 34.3368 134.0660 76° East  Level Estimated
Wed 07:43:00 AM 34.3677 134.2188 76° East  Level Estimated
Wed 07:44:00 AM 34.3984 134.3716 76° East  Level Estimated
Wed 07:45:00 AM 34.4289 134.5246 76° East  Level Estimated
Wed 07:46:00 AM 34.4592 134.6777 76° East  Level Estimated
Wed 07:47:00 AM 34.4893 134.8309 77° East  Level Estimated
Wed 07:48:00 AM 34.5192 134.9842 77° East  Level Estimated
Wed 07:49:00 AM 34.5489 135.1376 77° East  Level Estimated
Wed 07:50:00 AM 34.5784 135.2912 77° East  Level Estimated
Wed 07:51:00 AM 34.6078 135.4448 77° East  Level Estimated
Wed 07:52:00 AM 34.6369 135.5985 77° East  Level Estimated
Wed 07:53:00 AM 34.6659 135.7524 77° East  Level Estimated
Wed 07:54:00 AM 34.6947 135.9064 77° East  Level Estimated
Wed 07:55:00 AM 34.7232 136.0604 77° East  Level Estimated
Wed 07:56:00 AM 34.7516 136.2146 77° East  Level Estimated
Wed 07:57:00 AM 34.7798 136.3689 77° East  Level Estimated
Wed 07:58:00 AM 34.8078 136.5233 78° East  Level Estimated
Wed 07:59:00 AM 34.8355 136.6777 78° East  Level Estimated
Wed 08:00:00 AM 34.8583 136.8053 78° East  Level Estimated
Wed 08:01:00 AM 34.8583 136.8053 331° Northwest  Level Estimated
Wed 08:02:00 AM 34.8583 136.8053 331° Northwest  Level Estimated
Wed 08:03:00 AM 34.8583 136.8053 331° Northwest  Level Estimated
Wed 08:04:00 AM 34.8583 136.8053 331° Northwest  Level Estimated
Wed 08:05:00 AM 34.8583 136.8053 331° Northwest  Level Estimated
Wed 08:06:00 AM 34.8583 136.8053 331° Northwest  Level Estimated
Wed 08:07:00 AM 34.8583 136.8053 331° Northwest  Level Estimated
Wed 08:08:00 AM 34.8583 136.8053 331° Northwest  Level Estimated
Wed 08:09:00 AM 34.8583 136.8053 331° Northwest  Level Estimated
Wed 08:10:00 AM 34.8583 136.8053 331° Northwest  Level Estimated
Wed 08:11:00 AM 34.8583 136.8053 331° Northwest  Level Estimated

Login

Don't have an account? Register now (free) for customized features, flight alerts, and more!